Time;durP1;ratioP1;P1;durP2;ratioP2;P2;SDS_P1;SDS_P2;PMS_P1;PMS_P2;Temp;Humidity;BMP_temperature;BMP_pressure;BME280_temperature;BME280_humidity;BME280_pressure;Samples;Min_cycle;Max_cycle;Signal;HPM_P1;HPM_P2
2022/10/11 00:00:35;;;;;;;55.05;34.28;;;;;;;18.01;63.69;101619.00;5000305;28;20125;-83
2022/10/11 00:03:02;;;;;;;55.10;33.50;;;;;;;18.76;63.89;101757.16;4992922;28;20081;-81
2022/10/11 00:05:29;;;;;;;53.45;32.45;;;;;;;18.70;64.26;101751.56;4999505;28;20056;-80
2022/10/11 00:07:55;;;;;;;61.28;33.70;;;;;;;18.82;63.84;101758.34;4982255;28;20515;-80
2022/10/11 00:10:23;;;;;;;50.20;32.60;;;;;;;18.72;63.31;101747.69;4986590;28;20487;-81
2022/10/11 00:12:51;;;;;;;53.95;33.22;;;;;;;18.45;63.52;101711.13;4986470;28;20049;-80
2022/10/11 00:15:20;;;;;;;53.55;32.92;;;;;;;18.79;63.93;101766.75;5003116;28;20050;-81
2022/10/11 00:17:47;;;;;;;53.67;34.08;;;;;;;18.61;63.06;101712.19;4971173;28;20086;-80
2022/10/11 00:20:14;;;;;;;51.13;32.95;;;;;;;18.61;62.89;101706.78;4970365;28;20263;-79
2022/10/11 00:22:41;;;;;;;51.78;32.70;;;;;;;18.44;63.45;101709.41;4970219;28;20059;-79
2022/10/11 00:25:09;;;;;;;56.40;33.22;;;;;;;18.78;63.68;101765.88;4971104;28;20057;-80
2022/10/11 00:27:36;;;;;;;56.33;33.75;;;;;;;18.46;63.22;101712.78;4969814;28;20053;-79
2022/10/11 00:30:07;;;;;;;50.55;31.13;;;;;;;18.60;63.75;101740.09;5002452;28;20421;-81
2022/10/11 00:32:36;;;;;;;57.05;33.90;;;;;;;18.46;63.36;101723.53;4974971;28;20582;-80
2022/10/11 00:35:05;;;;;;;55.38;34.28;;;;;;;18.65;63.42;101762.78;4990726;28;20090;-80
2022/10/11 00:37:37;;;;;;;58.92;33.70;;;;;;;18.54;64.09;101766.63;4990091;28;20133;-80
2022/10/11 00:40:11;;;;;;;57.85;33.70;;;;;;;18.19;63.55;101688.81;4989375;28;20054;-81
2022/10/11 00:42:39;;;;;;;55.47;34.50;;;;;;;18.48;64.15;101740.34;4989067;28;20056;-80
2022/10/11 00:45:30;;;;;;;59.95;34.30;;;;;;;18.63;63.63;101756.72;4990045;28;20132;-79
2022/10/11 00:48:07;;;;;;;57.13;34.60;;;;;;;17.95;63.70;101650.03;4991811;28;20082;-81
2022/10/11 00:50:35;;;;;;;57.35;36.03;;;;;;;18.58;63.79;101753.69;4975755;28;20484;-83
2022/10/11 00:53:08;;;;;;;56.78;33.47;;;;;;;18.53;63.90;101739.88;4970733;28;20057;-79
2022/10/11 00:55:40;;;;;;;57.03;33.53;;;;;;;18.62;63.42;101743.44;4969854;28;20051;-81
2022/10/11 00:58:08;;;;;;;62.60;36.70;;;;;;;18.54;64.03;101742.41;5002229;28;20117;-81
2022/10/11 01:00:34;;;;;;;59.63;34.85;;;;;;;17.70;63.68;101603.38;5001652;28;20496;-79
2022/10/11 01:03:03;;;;;;;60.58;35.72;;;;;;;18.57;63.99;101747.47;5014058;28;20609;-79
2022/10/11 01:05:30;;;;;;;54.03;35.88;;;;;;;18.26;64.24;101705.97;4988726;28;20121;-80
2022/10/11 01:08:01;;;;;;;56.78;35.78;;;;;;;18.37;64.03;101721.81;4989127;28;20574;-77
2022/10/11 01:10:28;;;;;;;59.38;35.20;;;;;;;18.28;64.49;101712.88;4990272;28;20450;-79
2022/10/11 01:13:23;;;;;;;63.53;35.50;;;;;;;18.44;64.36;101741.69;4989430;28;20062;-82
2022/10/11 01:15:56;;;;;;;58.63;35.05;;;;;;;18.37;64.47;101732.56;4988215;28;20359;-78
2022/10/11 01:18:25;;;;;;;60.22;36.45;;;;;;;18.38;64.76;101741.50;4987197;28;20054;-79
2022/10/11 01:21:36;;;;;;;56.85;35.78;;;;;;;18.41;64.95;101742.00;4985248;28;20050;-79
2022/10/11 01:24:24;;;;;;;54.55;35.42;;;;;;;18.02;64.65;101677.97;4987443;28;20057;-80
2022/10/11 01:27:16;;;;;;;60.08;35.47;;;;;;;18.44;64.57;101747.06;4986352;28;20046;-79
2022/10/11 01:30:01;;;;;;;54.78;34.40;;;;;;;18.30;64.60;101729.69;5002891;28;20046;-79
2022/10/11 01:32:30;;;;;;;59.20;35.90;;;;;;;18.45;64.88;101734.47;4988583;28;20331;-80
2022/10/11 01:35:09;;;;;;;58.60;35.40;;;;;;;18.43;64.81;101741.84;4986738;28;20057;-80
2022/10/11 01:37:42;;;;;;;57.65;36.00;;;;;;;18.34;64.28;101708.69;5019006;28;20054;-79
2022/10/11 01:40:16;;;;;;;67.88;36.25;;;;;;;18.43;64.46;101734.63;4988297;28;20081;-81
2022/10/11 01:42:44;;;;;;;57.95;35.08;;;;;;;18.41;64.33;101720.50;4987401;28;20403;-80
2022/10/11 01:45:15;;;;;;;62.28;35.22;;;;;;;18.36;64.71;101730.88;4988163;28;20062;-81
2022/10/11 01:47:41;;;;;;;71.07;37.97;;;;;;;18.42;64.21;101724.03;4988346;28;20050;-80
2022/10/11 01:50:30;;;;;;;58.08;35.97;;;;;;;18.38;64.53;101728.88;4988410;28;20639;-81
2022/10/11 01:53:00;;;;;;;67.00;36.50;;;;;;;18.28;64.80;101722.78;4988660;28;20060;-80
2022/10/11 01:55:38;;;;;;;62.22;36.97;;;;;;;17.93;64.62;101652.03;4988455;28;20084;-80
2022/10/11 01:58:13;;;;;;;64.72;36.97;;;;;;;18.35;64.63;101721.16;4988829;28;20076;-82
2022/10/11 02:00:46;;;;;;;63.83;36.40;;;;;;;18.01;64.86;101676.28;4988206;28;20142;-82
2022/10/11 02:03:16;;;;;;;59.80;34.97;;;;;;;18.39;64.34;101725.19;4993912;28;20064;-80
2022/10/11 02:05:48;;;;;;;68.85;38.72;;;;;;;17.87;64.76;101653.53;4988363;28;20080;-80
2022/10/11 02:08:46;;;;;;;56.75;36.72;;;;;;;18.11;65.25;101701.19;5004967;28;20393;-80
2022/10/11 02:11:19;;;;;;;64.28;36.50;;;;;;;18.26;65.28;101712.19;4988611;28;20385;-80
2022/10/11 02:13:56;;;;;;;66.82;37.42;;;;;;;18.22;65.49;101715.34;5003333;28;20042;-80
2022/10/11 02:16:32;;;;;;;57.65;34.97;;;;;;;17.97;65.77;101685.66;5002759;28;20054;-81
2022/10/11 02:19:03;;;;;;;64.25;38.40;;;;;;;18.14;65.79;101714.31;5003009;28;20512;-80
2022/10/11 02:21:33;;;;;;;63.15;37.47;;;;;;;18.11;66.07;101700.34;5004274;28;20054;-80
2022/10/11 02:24:04;;;;;;;58.55;36.80;;;;;;;18.24;65.63;101714.19;5004313;28;20428;-80
2022/10/11 02:26:33;;;;;;;61.92;35.22;;;;;;;18.02;65.42;101677.13;4988026;28;20038;-81
2022/10/11 02:29:03;;;;;;;68.93;35.88;;;;;;;18.27;65.65;101713.03;5004053;28;20078;-80
2022/10/11 02:31:34;;;;;;;55.67;35.40;;;;;;;18.29;65.51;101714.56;5019877;28;20134;-80
2022/10/11 02:34:06;;;;;;;60.70;35.78;;;;;;;18.29;64.89;101702.97;5019230;28;20126;-81
2022/10/11 02:37:03;;;;;;;63.83;37.00;;;;;;;18.26;65.67;101708.66;4987424;28;20054;-80
2022/10/11 02:39:46;;;;;;;63.15;37.00;;;;;;;18.28;65.00;101703.97;4987531;28;20078;-80
2022/10/11 02:42:18;;;;;;;58.25;36.50;;;;;;;18.29;65.08;101705.66;4987452;28;20069;-81
2022/10/11 02:45:05;;;;;;;62.45;36.08;;;;;;;18.29;65.14;101705.66;4987737;28;20051;-80
2022/10/11 02:47:33;;;;;;;55.90;35.63;;;;;;;18.17;65.60;101709.63;4987492;28;20129;-82
2022/10/11 02:49:59;;;;;;;60.95;36.95;;;;;;;18.21;65.46;101702.94;4986614;28;20053;-81
2022/10/11 02:52:26;;;;;;;62.45;36.88;;;;;;;18.02;65.57;101683.34;4987133;28;20046;-81
2022/10/11 02:54:53;;;;;;;60.85;36.13;;;;;;;18.05;66.16;101703.66;4986528;28;20057;-79
2022/10/11 02:57:20;;;;;;;55.83;34.10;;;;;;;18.08;66.15;101701.53;4987382;28;20046;-79
2022/10/11 02:59:46;;;;;;;56.30;34.63;;;;;;;17.99;65.88;101677.44;4986750;28;20074;-81
2022/10/11 03:02:13;;;;;;;67.30;35.75;;;;;;;18.03;65.95;101685.00;4986041;28;20607;-80
2022/10/11 03:04:40;;;;;;;61.88;35.28;;;;;;;18.16;65.70;101695.34;5018760;28;20258;-79
2022/10/11 03:07:06;;;;;;;57.58;36.95;;;;;;;18.12;65.80;101700.19;4986627;28;20074;-80
2022/10/11 03:09:34;;;;;;;52.00;34.53;;;;;;;18.17;65.72;101705.09;5001932;28;20150;-80
2022/10/11 03:12:00;;;;;;;64.97;36.42;;;;;;;18.15;65.83;101710.59;5002785;28;20050;-79
2022/10/11 03:14:27;;;;;;;64.80;35.75;;;;;;;17.97;65.87;101674.06;5019379;28;20541;-78
2022/10/11 03:16:54;;;;;;;55.65;34.50;;;;;;;17.74;65.72;101626.22;5005218;28;20050;-79
2022/10/11 03:19:23;;;;;;;59.20;34.60;;;;;;;18.18;65.80;101704.09;5007314;28;20046;-80
2022/10/11 03:21:49;;;;;;;58.33;34.53;;;;;;;18.19;65.80;101702.25;5007553;28;20061;-80
2022/10/11 03:24:16;;;;;;;65.13;37.13;;;;;;;17.62;65.88;101622.97;5004004;28;20050;-81
2022/10/11 03:26:43;;;;;;;59.92;36.80;;;;;;;18.08;65.54;101681.84;5003542;28;20132;-78
2022/10/11 03:29:09;;;;;;;63.17;36.58;;;;;;;17.97;66.27;101671.38;5002831;28;20130;-79
2022/10/11 03:31:36;;;;;;;58.38;35.72;;;;;;;18.06;66.19;101690.09;5002896;28;20259;-80
2022/10/11 03:34:03;;;;;;;61.67;36.35;;;;;;;18.04;66.34;101702.00;5018952;28;20054;-79
2022/10/11 03:36:29;;;;;;;62.63;34.67;;;;;;;18.06;65.82;101708.91;4987681;28;20046;-79
2022/10/11 03:38:56;;;;;;;63.17;35.10;;;;;;;18.03;66.35;101701.13;5019017;28;20432;-80
2022/10/11 03:41:22;;;;;;;58.22;36.47;;;;;;;17.88;65.88;101671.31;4986900;28;20719;-79
2022/10/11 03:43:49;;;;;;;63.65;35.20;;;;;;;17.70;66.04;101641.81;4985169;28;20077;-79
2022/10/11 03:46:15;;;;;;;57.60;35.72;;;;;;;17.92;66.17;101682.59;4986550;28;20053;-79
2022/10/11 03:48:42;;;;;;;57.42;34.90;;;;;;;18.06;66.25;101711.56;4986021;28;20165;-79
2022/10/11 03:51:10;;;;;;;54.42;34.53;;;;;;;18.18;65.68;101712.16;4987576;28;20051;-79
2022/10/11 03:53:36;;;;;;;64.22;35.03;;;;;;;18.19;65.46;101715.69;4991070;28;20048;-80
2022/10/11 03:56:03;;;;;;;60.45;37.08;;;;;;;18.19;65.50;101715.69;4990044;28;20570;-79
2022/10/11 03:58:34;;;;;;;67.50;35.97;;;;;;;17.85;65.77;101676.19;4987858;28;20057;-79
2022/10/11 04:01:00;;;;;;;63.25;37.45;;;;;;;18.06;66.10;101725.00;4986375;28;20042;-80
2022/10/11 04:03:27;;;;;;;60.72;34.15;;;;;;;18.02;66.40;101729.00;4986560;28;20047;-79
2022/10/11 04:05:54;;;;;;;64.47;35.47;;;;;;;17.61;66.46;101661.53;5019858;28;20119;-80
2022/10/11 04:08:20;;;;;;;66.43;36.65;;;;;;;18.03;66.59;101725.31;4987688;28;20305;-79
2022/10/11 04:10:47;;;;;;;65.28;37.33;;;;;;;17.98;66.06;101708.00;5002763;28;20128;-79
2022/10/11 04:13:14;;;;;;;67.50;35.83;;;;;;;17.71;66.10;101667.66;5018678;28;20169;-79
2022/10/11 04:15:41;;;;;;;55.97;34.45;;;;;;;17.57;66.63;101665.53;5018406;28;20248;-79
2022/10/11 04:18:08;;;;;;;64.53;35.08;;;;;;;17.97;66.45;101717.91;5002615;28;20133;-79
2022/10/11 04:20:35;;;;;;;69.70;37.00;;;;;;;17.91;66.77;101718.50;4991497;28;20050;-81
2022/10/11 04:23:01;;;;;;;60.67;34.45;;;;;;;17.89;67.24;101726.75;4993951;28;20054;-80
2022/10/11 04:25:28;;;;;;;70.22;34.47;;;;;;;17.41;67.35;101649.31;4993287;28;20047;-79
2022/10/11 04:27:55;;;;;;;59.25;36.05;;;;;;;17.65;67.20;101684.41;4994893;28;20050;-79
2022/10/11 04:30:22;;;;;;;65.10;37.80;;;;;;;17.73;66.97;101691.66;4993010;28;20072;-79
2022/10/11 04:32:49;;;;;;;59.95;34.45;;;;;;;17.89;67.00;101725.91;5003011;28;20309;-79
2022/10/11 04:35:15;;;;;;;67.45;36.03;;;;;;;17.97;66.83;101717.06;5004673;28;20050;-80
2022/10/11 04:37:42;;;;;;;55.13;35.22;;;;;;;17.89;67.63;101726.75;4994705;28;20141;-79
2022/10/11 04:40:09;;;;;;;60.70;36.80;;;;;;;17.83;67.62;101722.00;5007160;28;20145;-79
2022/10/11 04:42:36;;;;;;;59.50;35.55;;;;;;;17.62;67.28;101687.41;5014401;28;20146;-81
2022/10/11 04:45:04;;;;;;;65.15;37.78;;;;;;;17.83;67.27;101721.16;4995743;28;20500;-81
2022/10/11 04:47:31;;;;;;;67.00;37.13;;;;;;;17.78;67.49;101718.91;4990540;28;20476;-80
2022/10/11 04:49:57;;;;;;;56.85;35.40;;;;;;;17.49;67.83;101684.28;4986821;28;20054;-79
2022/10/11 04:52:24;;;;;;;61.55;36.22;;;;;;;17.70;67.60;101706.25;4987378;28;20146;-79
2022/10/11 04:54:51;;;;;;;59.95;34.75;;;;;;;17.65;67.59;101699.69;4988758;28;20062;-80
2022/10/11 04:57:18;;;;;;;60.35;35.58;;;;;;;17.85;67.61;101729.91;5013478;28;20527;-80
2022/10/11 04:59:44;;;;;;;57.85;34.38;;;;;;;17.81;67.11;101728.50;5008960;28;20426;-78
2022/10/11 05:02:15;;;;;;;57.15;37.35;;;;;;;17.82;67.73;101725.69;5007671;28;20064;-81
2022/10/11 05:04:42;;;;;;;58.53;35.03;;;;;;;17.85;67.53;101724.53;4971377;28;20054;-80
2022/10/11 05:07:09;;;;;;;61.25;36.53;;;;;;;17.71;67.80;101707.94;5002067;28;20254;-81
2022/10/11 05:09:35;;;;;;;56.25;35.78;;;;;;;17.24;68.02;101641.13;4944079;28;20046;-82
2022/10/11 05:12:02;;;;;;;59.00;35.22;;;;;;;17.73;67.86;101719.38;4971046;28;20043;-81
2022/10/11 05:14:29;;;;;;;61.20;36.10;;;;;;;17.75;68.04;101723.75;4987895;28;20047;-80
2022/10/11 05:16:56;;;;;;;61.38;35.25;;;;;;;17.69;67.98;101714.47;4989823;28;20133;-81
2022/10/11 05:19:23;;;;;;;63.88;35.85;;;;;;;17.46;67.70;101660.44;5007171;28;20090;-79
2022/10/11 05:21:51;;;;;;;56.63;36.03;;;;;;;17.60;67.97;101696.59;4990424;28;20043;-80
2022/10/11 05:24:17;;;;;;;64.80;36.08;;;;;;;17.55;68.27;101686.34;4988604;28;20118;-80
2022/10/11 05:26:44;;;;;;;66.13;36.05;;;;;;;17.83;67.93;101734.59;4990858;28;20554;-80
2022/10/11 05:29:11;;;;;;;57.88;36.30;;;;;;;17.85;68.01;101741.47;5005566;28;20082;-80
2022/10/11 05:31:37;;;;;;;58.65;35.58;;;;;;;17.52;68.16;101692.88;5007748;28;20423;-79
2022/10/11 05:34:04;;;;;;;70.90;38.08;;;;;;;17.20;68.00;101645.09;4988157;28;20082;-80
2022/10/11 05:36:31;;;;;;;74.60;38.33;;;;;;;17.73;67.61;101721.22;5006440;28;20472;-81
2022/10/11 05:38:58;;;;;;;64.05;36.88;;;;;;;17.22;67.96;101647.66;4970896;28;20413;-80
2022/10/11 05:41:24;;;;;;;58.33;36.67;;;;;;;17.79;68.37;101747.47;4970291;28;20050;-81
2022/10/11 05:43:51;;;;;;;67.10;38.03;;;;;;;17.71;68.68;101744.69;4975014;28;20114;-79
2022/10/11 05:46:18;;;;;;;58.03;36.28;;;;;;;17.65;68.77;101727.38;4991289;28;20496;-79
2022/10/11 05:48:44;;;;;;;57.97;36.58;;;;;;;17.07;68.94;101645.50;5005629;28;20512;-79
2022/10/11 05:51:11;;;;;;;64.93;37.17;;;;;;;17.41;68.79;101711.06;4989455;28;20605;-81
2022/10/11 05:53:38;;;;;;;64.50;35.25;;;;;;;17.77;68.71;101770.06;5003756;28;20038;-79
2022/10/11 05:56:17;;;;;;;62.97;37.28;;;;;;;17.79;68.67;101773.44;4988543;28;20050;-79
2022/10/11 05:58:44;;;;;;;59.70;35.42;;;;;;;17.81;68.83;101766.13;4990444;28;20050;-79
2022/10/11 06:01:25;;;;;;;66.18;35.92;;;;;;;17.71;68.81;101767.00;4990410;28;20050;-80
2022/10/11 06:03:52;;;;;;;60.27;36.83;;;;;;;17.62;68.65;101751.00;4989716;28;20042;-81
2022/10/11 06:06:19;;;;;;;61.35;36.92;;;;;;;17.22;68.45;101686.06;4989194;28;20532;-81
2022/10/11 06:08:46;;;;;;;71.15;37.03;;;;;;;17.79;68.72;101778.81;4990619;28;20412;-81
2022/10/11 06:11:24;;;;;;;61.55;34.28;;;;;;;17.79;68.46;101778.81;5005154;28;20061;-81
2022/10/11 06:13:55;;;;;;;62.22;36.92;;;;;;;17.64;68.38;101749.84;4989385;28;20531;-82
2022/10/11 06:16:24;;;;;;;57.22;35.42;;;;;;;17.87;68.41;101781.63;5000007;28;20074;-80
2022/10/11 06:18:55;;;;;;;67.53;38.75;;;;;;;17.87;68.44;101776.25;5014481;28;20073;-81
2022/10/11 06:21:22;;;;;;;;;;;;;;;17.85;68.94;101791.69;4990615;28;20302;-82
2022/10/11 06:23:50;;;;;;;61.33;35.30;;;;;;;16.94;68.00;101628.09;4987791;28;20167;-81
2022/10/11 06:26:23;;;;;;;57.05;36.03;;;;;;;17.90;68.32;101792.06;4987844;28;20085;-80
2022/10/11 06:28:51;;;;;;;66.30;37.75;;;;;;;17.01;68.23;101645.28;4997683;28;20304;-81
2022/10/11 06:31:18;;;;;;;62.38;36.22;;;;;;;17.88;68.95;101788.69;4997144;28;20086;-80
2022/10/11 06:33:45;;;;;;;63.25;35.88;;;;;;;17.71;68.91;101756.28;4986936;28;20046;-81
2022/10/11 06:36:13;;;;;;;59.22;36.15;;;;;;;17.96;68.52;101791.41;5003261;28;20637;-80
2022/10/11 06:38:40;;;;;;;59.55;35.50;;;;;;;17.83;68.14;101773.03;5020396;28;20145;-79
2022/10/11 06:41:23;;;;;;;60.55;35.72;;;;;;;17.92;67.83;101772.09;4988250;28;20054;-78
2022/10/11 06:43:50;;;;;;;60.97;35.40;;;;;;;18.15;66.75;101793.06;4987042;28;20141;-79
2022/10/11 06:46:18;;;;;;;63.90;36.03;;;;;;;18.17;66.95;101799.13;5003933;28;20077;-81
2022/10/11 06:48:49;;;;;;;56.90;34.70;;;;;;;18.13;66.42;101787.88;4987106;28;20049;-81
2022/10/11 06:51:18;;;;;;;64.78;35.70;;;;;;;18.13;66.92;101795.94;4987452;28;20057;-80
2022/10/11 06:53:55;;;;;;;63.65;36.47;;;;;;;18.24;66.90;101800.19;4989530;28;20092;-81
2022/10/11 06:56:24;;;;;;;58.30;36.35;;;;;;;18.00;66.21;101748.97;4991403;28;20054;-80
2022/10/11 06:58:52;;;;;;;58.05;35.72;;;;;;;18.43;65.86;101803.69;4993004;28;20112;-80
2022/10/11 07:01:22;;;;;;;61.25;36.05;;;;;;;18.35;65.97;101791.03;4991771;28;20050;-81
2022/10/11 07:03:51;;;;;;;55.20;35.45;;;;;;;18.32;66.27;101785.97;4988750;28;20544;-80
2022/10/11 07:06:24;;;;;;;59.78;34.85;;;;;;;18.32;65.46;101775.22;4987815;28;20097;-82
2022/10/11 07:08:51;;;;;;;56.45;35.10;;;;;;;18.11;65.09;101733.44;4988169;28;20574;-81
2022/10/11 07:11:22;;;;;;;61.05;36.08;;;;;;;17.41;65.04;101617.13;5002636;28;20078;-79
2022/10/11 07:13:55;;;;;;;60.30;36.75;;;;;;;18.48;65.10;101788.75;5003373;28;20144;-81
2022/10/11 07:16:22;;;;;;;59.85;36.60;;;;;;;18.57;65.26;101817.38;4986590;28;20154;-81
2022/10/11 07:18:52;;;;;;;61.13;37.10;;;;;;;18.66;64.63;101793.22;5002742;28;20214;-82
2022/10/11 07:21:25;;;;;;;61.53;35.22;;;;;;;18.72;65.10;101822.19;5002860;28;20113;-80
2022/10/11 07:23:52;;;;;;;65.32;34.33;;;;;;;18.73;64.84;101821.16;5002403;28;20488;-81
2022/10/11 07:26:19;;;;;;;61.30;36.20;;;;;;;18.61;64.13;101774.03;4985113;28;20050;-81
2022/10/11 07:28:46;;;;;;;64.93;37.15;;;;;;;18.90;63.80;101816.72;4992477;28;20412;-81
2022/10/11 07:31:16;;;;;;;64.20;36.33;;;;;;;18.77;64.38;101833.31;4985093;28;20062;-81
2022/10/11 07:33:43;;;;;;;63.10;34.28;;;;;;;18.85;63.95;101819.91;5001321;28;20460;-79
2022/10/11 07:36:10;;;;;;;61.30;33.83;;;;;;;18.76;64.40;101826.25;5000955;28;20046;-79
2022/10/11 07:38:41;;;;;;;55.13;35.55;;;;;;;18.74;64.13;101804.03;5018566;28;20050;-80
2022/10/11 07:41:09;;;;;;;69.50;38.53;;;;;;;18.36;63.93;101749.72;4987008;28;20054;-82
2022/10/11 07:43:37;;;;;;;59.33;34.85;;;;;;;18.63;64.21;101796.22;4988109;28;20133;-81
2022/10/11 07:46:04;;;;;;;56.45;35.78;;;;;;;18.12;64.25;101716.31;4989946;28;20073;-80
2022/10/11 07:48:33;;;;;;;62.00;34.85;;;;;;;18.73;64.31;101826.53;4987457;28;20069;-81
2022/10/11 07:51:05;;;;;;;58.00;33.30;;;;;;;18.91;64.04;101840.78;4986391;28;20149;-79
2022/10/11 07:53:38;;;;;;;58.25;35.45;;;;;;;18.64;63.17;101777.25;4987832;28;20409;-81
2022/10/11 07:56:05;;;;;;;56.05;32.72;;;;;;;18.66;63.57;101794.06;4989507;28;20051;-80
2022/10/11 07:58:32;;;;;;;58.97;33.90;;;;;;;18.89;64.03;101815.91;4986598;28;20058;-80
2022/10/11 08:00:59;;;;;;;60.08;34.45;;;;;;;18.88;63.73;101811.50;4985952;28;20058;-81
2022/10/11 08:03:26;;;;;;;55.75;32.45;;;;;;;19.07;63.55;101839.16;4985711;28;20108;-80
2022/10/11 08:05:52;;;;;;;62.42;31.85;;;;;;;19.06;63.55;101837.50;4987120;28;20555;-80
2022/10/11 08:08:19;;;;;;;48.40;33.40;;;;;;;18.48;63.14;101726.09;4985353;28;20468;-82
2022/10/11 08:10:46;;;;;;;62.38;33.20;;;;;;;19.14;63.07;101834.81;4985930;28;20046;-80
2022/10/11 08:13:14;;;;;;;47.67;30.88;;;;;;;19.20;62.61;101818.03;4986040;28;20050;-81
2022/10/11 08:15:40;;;;;;;55.70;33.20;;;;;;;19.02;62.32;101782.31;4985915;28;20507;-80
2022/10/11 08:18:07;;;;;;;56.42;33.63;;;;;;;19.11;63.14;101824.41;4986279;28;20584;-80
2022/10/11 08:20:36;;;;;;;55.45;33.13;;;;;;;19.26;62.68;101836.22;4987513;28;20396;-79
2022/10/11 08:23:03;;;;;;;55.33;33.83;;;;;;;19.32;62.69;101837.41;4985823;28;20054;-81
2022/10/11 08:25:30;;;;;;;57.22;33.75;;;;;;;19.31;62.74;101835.72;4986287;28;20086;-81
2022/10/11 08:27:57;;;;;;;54.40;31.83;;;;;;;19.08;63.52;101814.78;4991708;28;20050;-80
2022/10/11 08:30:24;;;;;;;57.85;33.03;;;;;;;19.23;63.14;101816.88;5013084;28;20462;-80
2022/10/11 08:32:50;;;;;;;62.95;36.10;;;;;;;19.37;62.76;101825.16;4989543;28;20527;-80
2022/10/11 08:35:17;;;;;;;61.47;31.30;;;;;;;19.30;63.13;101829.50;4991399;28;20464;-79
2022/10/11 08:37:44;;;;;;;53.28;32.40;;;;;;;19.33;63.58;101837.25;5006187;28;20046;-79
2022/10/11 08:40:14;;;;;;;54.30;29.83;;;;;;;18.56;63.65;101697.34;4989661;28;20049;-79
2022/10/11 08:42:47;;;;;;;51.70;29.40;;;;;;;19.63;62.73;101845.72;4990010;28;20050;-80
2022/10/11 08:45:38;;;;;;;53.08;31.55;;;;;;;19.60;62.50;101830.72;4990040;28;20432;-76
2022/10/11 08:48:32;;;;;;;44.20;29.83;;;;;;;19.75;61.90;101833.63;4990997;28;20050;-80
2022/10/11 08:51:00;;;;;;;58.28;31.48;;;;;;;19.70;62.05;101809.06;4970929;28;20058;-80
2022/10/11 08:53:54;;;;;;;51.35;31.10;;;;;;;19.96;61.73;101835.03;4971161;28;20089;-80
2022/10/11 08:56:24;;;;;;;47.67;31.42;;;;;;;20.02;61.71;101834.31;4987903;28;20060;-80
2022/10/11 08:59:19;;;;;;;51.92;31.13;;;;;;;20.16;61.33;101838.22;4989461;28;20553;-80
2022/10/11 09:01:53;;;;;;;51.88;32.65;;;;;;;20.29;61.03;101833.13;4999651;28;20078;-79
2022/10/11 09:04:20;;;;;;;54.80;33.67;;;;;;;20.33;61.00;101834.47;5000589;28;20139;-79
2022/10/11 09:07:06;;;;;;;55.58;34.88;;;;;;;20.27;60.50;101789.34;4991393;28;20051;-79
2022/10/11 09:09:49;;;;;;;53.10;33.38;;;;;;;19.53;60.32;101662.72;4989062;28;20457;-79
2022/10/11 09:12:39;;;;;;;59.30;33.80;;;;;;;20.76;59.84;101836.97;4989285;28;20065;-79
2022/10/11 09:15:28;;;;;;;50.20;33.25;;;;;;;20.84;59.78;101835.06;4990146;28;20060;-78
2022/10/11 09:18:12;;;;;;;54.78;32.03;;;;;;;21.03;59.03;101835.66;4988400;28;20056;-78
2022/10/11 09:21:00;;;;;;;52.60;33.28;;;;;;;21.07;59.48;101835.16;4989275;28;20285;-80
2022/10/11 09:23:42;;;;;;;53.42;32.20;;;;;;;21.18;58.21;101830.38;4988102;28;20089;-77
2022/10/11 09:26:12;;;;;;;56.53;33.47;;;;;;;21.35;58.09;101832.78;4988263;28;20068;-81
2022/10/11 09:28:57;;;;;;;49.45;32.75;;;;;;;21.41;57.91;101828.59;4987925;28;20381;-81
2022/10/11 09:31:28;;;;;;;52.40;31.00;;;;;;;21.40;58.27;101818.78;4987819;28;20133;-79
2022/10/11 09:34:05;;;;;;;48.95;32.85;;;;;;;21.62;57.80;101827.09;4996637;28;20042;-82
2022/10/11 09:36:53;;;;;;;50.72;30.77;;;;;;;21.70;57.32;101816.22;4994453;28;20137;-81
2022/10/11 09:39:33;;;;;;;57.30;29.83;;;;;;;21.64;57.03;101781.81;5001337;28;20070;-80
2022/10/11 09:42:09;;;;;;;53.22;30.15;;;;;;;21.73;56.95;101783.44;4968963;28;20059;-81
2022/10/11 09:44:36;;;;;;;48.90;31.10;;;;;;;21.80;56.57;101768.19;5020515;28;20062;-79
2022/10/11 09:47:05;;;;;;;45.47;28.88;;;;;;;22.27;56.04;101814.94;4987866;28;20134;-81
2022/10/11 09:49:41;;;;;;;58.53;32.30;;;;;;;22.13;55.33;101781.38;4999586;28;20054;-81
2022/10/11 09:52:20;;;;;;;53.80;32.38;;;;;;;22.33;54.39;101790.69;5011318;28;20050;-80
2022/10/11 09:54:59;;;;;;;56.35;32.70;;;;;;;22.46;54.42;101798.16;5010343;28;20081;-81
2022/10/11 09:57:32;;;;;;;49.42;31.33;;;;;;;22.69;54.16;101818.88;5019697;28;20046;-81
2022/10/11 10:00:20;;;;;;;55.38;32.28;;;;;;;22.78;53.90;101817.75;5015676;28;20050;-80
2022/10/11 10:02:53;;;;;;;54.42;28.40;;;;;;;22.86;54.30;101816.81;4994109;28;20147;-79
2022/10/11 10:05:25;;;;;;;49.20;30.20;;;;;;;23.01;53.52;101809.53;4993020;28;20575;-80
2022/10/11 10:08:03;;;;;;;52.47;30.35;;;;;;;23.27;52.49;101821.72;5015213;28;20052;-82
2022/10/11 10:10:38;;;;;;;51.35;29.67;;;;;;;22.18;52.86;101652.69;5008991;28;20419;-79
2022/10/11 10:13:21;;;;;;;48.80;29.23;;;;;;;23.26;52.51;101820.88;4988948;28;20046;-79
2022/10/11 10:15:52;;;;;;;45.90;30.52;;;;;;;23.26;52.59;101831.72;4987480;28;20136;-81
2022/10/11 10:18:28;;;;;;;48.70;30.50;;;;;;;23.38;52.48;101832.91;4986960;28;20512;-81
2022/10/11 10:20:58;;;;;;;49.65;29.75;;;;;;;23.53;52.43;101826.59;4987311;28;20050;-80
2022/10/11 10:23:29;;;;;;;47.92;32.50;;;;;;;23.11;51.33;101746.94;4987795;28;20469;-77
2022/10/11 10:26:16;;;;;;;53.60;31.63;;;;;;;22.33;51.06;101614.88;5003847;28;20085;-79
2022/10/11 10:29:09;;;;;;;58.35;32.42;;;;;;;23.72;51.34;101831.38;4986990;28;20046;-79
2022/10/11 10:31:38;;;;;;;51.80;31.13;;;;;;;22.64;51.12;101624.56;4985501;28;20070;-80
2022/10/11 10:34:35;;;;;;;55.35;32.50;;;;;;;23.54;50.39;101747.78;5000880;28;20140;-82
2022/10/11 10:37:13;;;;;;;46.17;30.15;;;;;;;24.09;50.58;101816.72;5019147;28;20483;-81
2022/10/11 10:39:58;;;;;;;44.80;29.80;;;;;;;24.23;49.45;101824.97;4988426;28;20605;-79
2022/10/11 10:42:25;;;;;;;46.75;28.90;;;;;;;24.35;49.86;101828.81;4986411;28;20128;-81
2022/10/11 10:44:54;;;;;;;54.22;30.90;;;;;;;24.28;48.83;101801.63;4997490;28;20089;-80
2022/10/11 10:47:45;;;;;;;46.95;31.55;;;;;;;24.55;49.04;101830.84;4996269;28;20365;-79
2022/10/11 10:50:26;;;;;;;46.20;29.52;;;;;;;24.35;48.30;101768.28;4986863;28;20078;-82
2022/10/11 10:53:04;;;;;;;49.70;28.45;;;;;;;24.73;47.65;101807.56;4985811;28;20051;-81
2022/10/11 10:55:38;;;;;;;53.55;33.10;;;;;;;24.92;47.53;101816.81;4986586;28;20488;-81
2022/10/11 10:58:26;;;;;;;43.40;29.73;;;;;;;24.80;47.15;101780.44;4990266;28;20053;-82
2022/10/11 11:01:01;;;;;;;47.38;28.90;;;;;;;24.73;46.51;101752.41;4988928;28;20149;-80
2022/10/11 11:03:41;;;;;;;49.20;31.02;;;;;;;24.97;46.58;101789.06;4988064;28;20359;-80
2022/10/11 11:06:48;;;;;;;44.35;28.13;;;;;;;25.11;45.83;101803.53;4987366;28;20500;-80
2022/10/11 11:09:30;;;;;;;50.53;26.77;;;;;;;25.14;45.38;101822.97;4973810;28;20129;-80
2022/10/11 11:12:21;;;;;;;41.85;27.50;;;;;;;25.10;45.38;101819.00;4987683;28;20351;-81
2022/10/11 11:15:11;;;;;;;44.92;29.55;;;;;;;24.82;45.43;101799.25;4988556;28;20082;-79
2022/10/11 11:18:03;;;;;;;43.78;27.95;;;;;;;24.65;46.01;101793.31;4987834;28;20476;-79
2022/10/11 11:20:48;;;;;;;45.65;25.33;;;;;;;24.50;46.41;101802.41;4965802;28;20075;-80
2022/10/11 11:23:47;;;;;;;43.55;27.33;;;;;;;24.21;46.50;101772.78;4977809;28;20080;-81
2022/10/11 11:26:29;;;;;;;51.55;30.33;;;;;;;24.35;47.21;101798.97;4983339;28;20522;-83
2022/10/11 11:29:30;;;;;;;38.60;24.20;;;;;;;23.91;47.74;101742.28;4985730;28;20050;-80
2022/10/11 11:32:19;;;;;;;45.70;25.50;;;;;;;24.21;48.21;101802.63;4986868;28;20074;-80